Time;durP1;ratioP1;P1;durP2;ratioP2;P2;SDS_P1;SDS_P2;PMS_P1;PMS_P2;Temp;Humidity;BMP_temperature;BMP_pressure;BME280_temperature;BME280_humidity;BME280_pressure;Samples;Min_cycle;Max_cycle;Signal;HPM_P1;HPM_P2
2022/12/27 00:01:22;;;;;;;34.45;25.80;;;12.30;93.80;;;;;;5096708;28;20411;-78
2022/12/27 00:03:48;;;;;;;35.13;27.33;;;12.30;93.80;;;;;;5095030;28;20384;-78
2022/12/27 00:06:18;;;;;;;32.95;25.50;;;12.40;93.90;;;;;;5075947;28;20093;-78
2022/12/27 00:08:44;;;;;;;35.45;25.45;;;12.40;93.80;;;;;;5075662;28;20036;-78
2022/12/27 00:11:19;;;;;;;30.98;24.65;;;12.50;93.70;;;;;;5075751;28;20027;-78
2022/12/27 00:13:45;;;;;;;34.17;25.08;;;12.50;93.80;;;;;;5093838;28;20032;-78
2022/12/27 00:16:14;;;;;;;35.40;26.27;;;12.50;93.70;;;;;;5094024;28;20024;-78
2022/12/27 00:18:40;;;;;;;31.80;25.30;;;12.50;93.70;;;;;;5075886;28;20028;-78
2022/12/27 00:21:07;;;;;;;35.60;25.35;;;12.50;93.60;;;;;;5093686;28;20039;-78
2022/12/27 00:23:35;;;;;;;32.58;24.88;;;12.50;93.70;;;;;;5075754;28;20091;-79
2022/12/27 00:26:04;;;;;;;34.65;25.30;;;12.50;93.80;;;;;;5075299;28;20040;-79
2022/12/27 00:28:31;;;;;;;30.05;24.98;;;12.40;93.80;;;;;;5093431;28;20040;-78
2022/12/27 00:30:58;;;;;;;34.53;26.17;;;12.30;93.60;;;;;;5093439;28;20083;-78
2022/12/27 00:33:25;;;;;;;33.30;25.45;;;12.20;93.70;;;;;;5075237;28;20036;-80
2022/12/27 00:35:51;;;;;;;33.03;26.83;;;12.20;93.90;;;;;;5075570;28;20043;-78
2022/12/27 00:38:16;;;;;;;32.42;25.10;;;12.10;93.60;;;;;;5075429;28;20032;-78
2022/12/27 00:40:42;;;;;;;34.25;26.23;;;12.10;93.70;;;;;;5093444;28;20028;-79
2022/12/27 00:43:08;;;;;;;32.13;24.48;;;12.10;93.70;;;;;;5093394;28;20024;-79
2022/12/27 00:45:33;;;;;;;31.33;24.75;;;12.00;93.60;;;;;;5093285;28;20402;-78
2022/12/27 00:47:59;;;;;;;33.28;25.60;;;12.00;93.60;;;;;;5093644;28;20043;-79
2022/12/27 00:50:25;;;;;;;32.50;25.98;;;11.90;93.60;;;;;;5075013;28;20043;-78
2022/12/27 00:52:51;;;;;;;34.50;25.15;;;11.90;93.80;;;;;;5093218;28;20119;-78
2022/12/27 00:55:16;;;;;;;32.42;24.50;;;11.80;93.80;;;;;;5074853;28;20498;-78
2022/12/27 00:57:42;;;;;;;30.25;24.15;;;11.80;93.80;;;;;;5075114;28;20028;-79
2022/12/27 01:00:09;;;;;;;30.55;23.58;;;11.80;93.80;;;;;;5074920;28;20480;-78
2022/12/27 01:02:34;;;;;;;29.50;22.90;;;11.80;93.50;;;;;;5074700;28;20036;-78
2022/12/27 01:05:00;;;;;;;29.77;23.88;;;11.70;93.80;;;;;;5074844;28;20401;-79
2022/12/27 01:07:26;;;;;;;28.60;23.80;;;11.80;93.80;;;;;;5093199;28;20086;-78
2022/12/27 01:09:52;;;;;;;29.85;23.10;;;11.70;93.70;;;;;;5074769;28;20122;-78
2022/12/27 01:12:17;;;;;;;30.90;23.88;;;11.70;93.80;;;;;;5075002;28;20123;-78
2022/12/27 01:14:43;;;;;;;29.55;23.80;;;11.70;93.70;;;;;;5074701;28;20487;-78
2022/12/27 01:17:09;;;;;;;33.50;24.10;;;11.70;93.80;;;;;;5074311;28;20032;-78
2022/12/27 01:19:35;;;;;;;30.83;22.85;;;11.70;93.80;;;;;;5074789;28;20487;-79
2022/12/27 01:22:02;;;;;;;29.77;22.42;;;11.70;93.90;;;;;;5092908;28;20484;-77
2022/12/27 01:24:28;;;;;;;30.15;22.00;;;11.60;93.70;;;;;;5074629;28;20138;-77
2022/12/27 01:26:53;;;;;;;27.00;21.90;;;11.50;93.80;;;;;;5074494;28;20080;-78
2022/12/27 01:29:19;;;;;;;28.10;21.70;;;11.50;93.70;;;;;;5092770;28;20032;-78
2022/12/27 01:31:45;;;;;;;26.13;20.83;;;11.50;93.70;;;;;;5092234;28;20039;-78
2022/12/27 01:34:11;;;;;;;27.73;20.05;;;11.50;93.80;;;;;;5074563;28;20421;-78
2022/12/27 01:36:37;;;;;;;31.02;22.08;;;11.50;93.80;;;;;;5074459;28;20138;-78
2022/12/27 01:39:03;;;;;;;28.20;21.55;;;11.50;93.80;;;;;;5074439;28;20063;-78
2022/12/27 01:44:48;;;;;;;29.00;21.02;;;11.40;93.80;;;;;;5092201;28;20034;-77
2022/12/27 01:47:35;;;;;;;30.33;22.30;;;11.30;93.80;;;;;;5092978;28;20498;-77
2022/12/27 01:50:28;;;;;;;27.55;21.63;;;11.20;93.10;;;;;;5092957;28;20044;-77
2022/12/27 01:53:03;;;;;;;27.17;22.15;;;11.20;93.00;;;;;;5092486;28;20028;-78
2022/12/27 01:55:47;;;;;;;28.65;22.67;;;11.20;93.00;;;;;;5092332;28;20492;-77
2022/12/27 01:58:27;;;;;;;28.25;21.77;;;11.10;93.00;;;;;;5092417;28;20056;-78
2022/12/27 02:00:53;;;;;;;28.98;23.50;;;11.00;93.00;;;;;;5074306;28;20032;-77
2022/12/27 02:03:33;;;;;;;29.00;23.50;;;11.00;93.80;;;;;;5074362;28;20032;-78
2022/12/27 02:06:01;;;;;;;33.75;25.13;;;11.00;94.10;;;;;;5074622;28;20040;-79
2022/12/27 02:08:47;;;;;;;33.80;25.55;;;11.00;94.10;;;;;;5074461;28;20028;-78
2022/12/27 02:11:14;;;;;;;31.95;24.55;;;10.90;93.10;;;;;;5092253;28;20040;-75
2022/12/27 02:13:43;;;;;;;32.67;24.80;;;10.90;94.00;;;;;;5092782;28;20029;-78
2022/12/27 02:16:15;;;;;;;30.10;23.33;;;10.90;94.10;;;;;;5093154;28;20559;-76
2022/12/27 02:18:42;;;;;;;28.63;23.95;;;10.90;93.90;;;;;;5093219;28;20104;-77
2022/12/27 02:21:08;;;;;;;26.85;22.08;;;10.90;94.10;;;;;;5092445;28;20051;-78
2022/12/27 02:24:06;;;;;;;26.48;20.60;;;10.90;93.50;;;;;;5094298;28;20492;-78
2022/12/27 02:26:56;;;;;;;22.25;18.38;;;10.90;93.10;;;;;;5076038;28;20036;-78
2022/12/27 02:29:42;;;;;;;23.05;19.15;;;10.80;93.00;;;;;;5093445;28;20048;-78
2022/12/27 02:32:14;;;;;;;21.35;17.35;;;10.80;92.80;;;;;;5096776;28;20034;-71
2022/12/27 02:34:39;;;;;;;22.63;17.65;;;10.80;93.00;;;;;;5078274;28;20032;-79
2022/12/27 02:37:09;;;;;;;22.90;17.65;;;10.80;93.60;;;;;;5096481;28;20114;-78
2022/12/27 02:39:39;;;;;;;21.20;16.92;;;10.70;93.50;;;;;;5078204;28;20059;-78
2022/12/27 02:53:22;;;;;;;23.35;16.52;;;10.80;93.20;;;;;;5095616;28;20077;-78
2022/12/27 02:57:18;;;;;;;21.77;16.27;;;10.80;92.80;;;;;;5095466;28;20043;-78
2022/12/27 03:03:19;;;;;;;22.73;17.40;;;10.80;92.70;;;;;;5044615;28;20115;-78
2022/12/27 03:06:38;;;;;;;22.98;16.55;;;10.70;92.70;;;;;;5095668;28;20102;-79
2022/12/27 03:08:50;;;;;;;24.15;17.15;;;10.70;92.70;;;;;;5094647;28;20518;-79
2022/12/27 03:17:13;;;;;;;21.98;17.23;;;10.70;93.80;;;;;;5095412;28;20123;-79
2022/12/27 03:25:28;;;;;;;22.75;16.90;;;10.80;93.80;;;;;;5095479;28;20027;-79
2022/12/27 03:39:48;;;;;;;19.48;16.15;;;10.80;93.80;;;;;;5095052;28;20549;-78
2022/12/27 03:45:08;;;;;;;22.08;16.80;;;10.90;94.00;;;;;;5094848;28;20395;-78
2022/12/27 03:47:37;;;;;;;23.42;17.02;;;10.90;93.70;;;;;;5076221;28;20057;-77
2022/12/27 03:50:24;;;;;;;22.33;17.58;;;10.90;93.70;;;;;;5094390;28;20056;-78
2022/12/27 03:53:14;;;;;;;21.98;16.30;;;10.90;92.90;;;;;;5094199;28;20021;-78
2022/12/27 03:55:41;;;;;;;22.00;16.38;;;10.90;92.90;;;;;;5076361;28;20098;-78
2022/12/27 03:58:07;;;;;;;21.90;16.35;;;10.90;93.60;;;;;;5094360;28;20032;-78
2022/12/27 04:00:33;;;;;;;20.05;15.82;;;11.00;93.80;;;;;;5094141;28;20100;-78
2022/12/27 04:02:59;;;;;;;19.80;16.08;;;11.00;93.40;;;;;;5076268;28;20044;-78
2022/12/27 04:05:24;;;;;;;18.70;14.95;;;11.00;93.40;;;;;;5076309;28;20032;-78
2022/12/27 04:35:11;;;;;;;17.02;13.98;;;11.20;92.50;;;;;;5094383;28;20124;-79
2022/12/27 04:37:36;;;;;;;19.55;14.02;;;11.20;92.90;;;;;;5075532;28;20036;-77
2022/12/27 04:56:28;;;;;;;20.77;15.45;;;11.20;92.80;;;;;;5093278;28;20162;-78
2022/12/27 05:04:23;;;;;;;23.38;15.75;;;11.10;93.10;;;;;;5093281;28;20105;-78
2022/12/27 05:06:48;;;;;;;19.65;16.50;;;11.20;93.30;;;;;;5093372;28;20036;-79
2022/12/27 05:14:44;;;;;;;21.58;15.88;;;11.20;93.50;;;;;;5051693;28;19904;-78
2022/12/27 05:17:10;;;;;;;22.20;16.25;;;11.20;93.20;;;;;;5093098;28;20024;-79
2022/12/27 05:19:36;;;;;;;23.48;16.17;;;11.20;93.10;;;;;;5074633;28;20024;-79
2022/12/27 05:27:29;;;;;;;;;;;11.20;92.70;;;;;;5093397;28;20408;-78
2022/12/27 05:29:55;;;;;;;23.27;15.70;;;11.20;93.40;;;;;;5074399;28;19912;-78
2022/12/27 05:32:21;;;;;;;27.77;17.75;;;11.20;93.30;;;;;;5092849;28;20092;-78
2022/12/27 05:34:46;;;;;;;27.30;17.90;;;11.20;93.20;;;;;;5092937;28;20046;-78
2022/12/27 05:37:12;;;;;;;28.55;17.13;;;11.30;93.30;;;;;;5074636;28;20050;-77
2022/12/27 05:39:37;;;;;;;28.02;17.48;;;11.30;93.40;;;;;;5076761;28;20040;-77
2022/12/27 05:42:03;;;;;;;26.67;18.20;;;11.30;93.30;;;;;;5077202;28;20032;-78
2022/12/27 05:44:29;;;;;;;25.58;17.98;;;11.30;93.30;;;;;;5095214;28;20036;-78
2022/12/27 05:46:55;;;;;;;23.23;16.48;;;11.40;93.30;;;;;;5074389;28;20051;-79
2022/12/27 05:49:21;;;;;;;22.48;16.55;;;11.40;93.40;;;;;;5092525;28;20040;-79
2022/12/27 05:51:46;;;;;;;23.17;17.45;;;11.50;93.40;;;;;;5074197;28;20028;-77
2022/12/27 05:54:12;;;;;;;26.30;16.92;;;11.40;93.40;;;;;;5092416;28;20036;-79
2022/12/27 05:56:38;;;;;;;26.45;17.08;;;11.50;93.40;;;;;;5074216;28;20036;-77
2022/12/27 05:59:05;;;;;;;24.83;17.08;;;11.50;93.40;;;;;;5074217;28;20373;-75
2022/12/27 06:01:31;;;;;;;26.42;17.17;;;11.50;93.60;;;;;;5092716;28;20040;-79
2022/12/27 06:03:56;;;;;;;24.25;16.60;;;11.60;93.50;;;;;;5094594;28;20081;-77
2022/12/27 06:06:22;;;;;;;23.10;16.85;;;11.60;93.50;;;;;;5096811;28;20074;-78
2022/12/27 06:08:48;;;;;;;27.02;17.30;;;11.50;93.40;;;;;;5078740;28;20032;-78
2022/12/27 06:11:16;;;;;;;31.42;18.45;;;11.60;93.50;;;;;;5096555;28;20023;-79
2022/12/27 06:13:47;;;;;;;24.40;16.88;;;11.60;93.60;;;;;;5096422;28;20032;-78
2022/12/27 06:16:12;;;;;;;22.58;17.23;;;11.60;93.70;;;;;;5078244;28;20082;-78
2022/12/27 06:18:40;;;;;;;26.15;17.42;;;11.70;93.60;;;;;;5078248;28;20480;-78
2022/12/27 06:21:12;;;;;;;27.80;16.48;;;11.70;93.60;;;;;;5096273;28;20032;-78
2022/12/27 06:23:39;;;;;;;26.27;16.95;;;11.70;93.80;;;;;;5097082;28;20466;-77
2022/12/27 06:26:07;;;;;;;25.27;15.98;;;11.70;93.80;;;;;;5096481;28;20032;-77
2022/12/27 06:28:34;;;;;;;22.92;16.30;;;11.70;93.70;;;;;;5096438;28;20039;-78
2022/12/27 06:31:01;;;;;;;26.90;16.65;;;11.70;93.40;;;;;;5096211;28;20036;-79
2022/12/27 06:33:27;;;;;;;25.95;16.00;;;11.70;93.60;;;;;;5077755;28;20048;-78
2022/12/27 06:35:53;;;;;;;24.85;15.63;;;11.70;93.50;;;;;;5077964;28;20044;-78
2022/12/27 06:38:18;;;;;;;23.13;15.38;;;11.80;93.80;;;;;;5096187;28;20032;-78
2022/12/27 06:40:44;;;;;;;21.88;15.13;;;11.70;93.40;;;;;;5096080;28;20036;-78
2022/12/27 06:43:11;;;;;;;22.80;14.05;;;11.70;93.40;;;;;;5078009;28;20042;-78
2022/12/27 06:45:36;;;;;;;18.70;13.38;;;11.70;93.40;;;;;;5095891;28;20107;-78
2022/12/27 06:48:02;;;;;;;18.42;12.75;;;11.70;93.20;;;;;;5077411;28;20442;-79
2022/12/27 06:50:28;;;;;;;18.88;12.15;;;11.70;93.20;;;;;;5095898;28;20048;-78
2022/12/27 06:52:55;;;;;;;19.17;12.98;;;11.70;93.10;;;;;;5095921;28;20032;-79
2022/12/27 06:55:21;;;;;;;17.05;11.80;;;11.70;93.10;;;;;;5095998;28;20400;-78
2022/12/27 06:57:46;;;;;;;16.05;11.82;;;11.70;93.10;;;;;;5078079;28;20032;-77
2022/12/27 07:00:13;;;;;;;18.77;12.45;;;11.70;92.90;;;;;;5077310;28;20032;-79
2022/12/27 07:02:39;;;;;;;17.70;12.50;;;11.70;92.80;;;;;;5077331;28;20031;-78
2022/12/27 07:05:05;;;;;;;19.38;12.85;;;11.80;92.90;;;;;;5095516;28;20028;-79
2022/12/27 07:07:31;;;;;;;21.58;12.70;;;11.80;92.70;;;;;;5076990;28;20040;-78
2022/12/27 07:09:57;;;;;;;20.70;12.48;;;11.80;92.80;;;;;;5076807;28;20491;-79
2022/12/27 07:12:23;;;;;;;17.38;12.57;;;11.90;92.70;;;;;;5095295;28;20114;-78
2022/12/27 07:14:48;;;;;;;16.83;12.60;;;11.90;92.70;;;;;;5094572;28;20075;-79
2022/12/27 07:17:14;;;;;;;21.73;13.35;;;11.90;92.70;;;;;;5094958;28;20028;-78
2022/12/27 07:19:40;;;;;;;20.67;13.15;;;12.00;92.50;;;;;;5095148;28;20120;-79
2022/12/27 07:22:06;;;;;;;22.42;13.63;;;12.00;92.50;;;;;;5094992;28;20056;-77
2022/12/27 07:24:32;;;;;;;21.63;13.63;;;12.00;92.40;;;;;;5095266;28;20032;-79
2022/12/27 07:26:58;;;;;;;21.38;14.13;;;12.00;92.40;;;;;;5076730;28;20555;-78
2022/12/27 07:29:25;;;;;;;20.55;14.38;;;12.00;92.40;;;;;;5076702;28;20051;-78
2022/12/27 07:31:50;;;;;;;20.63;15.40;;;12.10;92.30;;;;;;5076231;28;20056;-79
2022/12/27 07:34:17;;;;;;;22.45;13.90;;;12.10;92.30;;;;;;5077171;28;20067;-77
2022/12/27 07:36:43;;;;;;;20.33;15.20;;;12.10;92.00;;;;;;5095504;28;20032;-79
2022/12/27 07:39:13;;;;;;;23.30;14.88;;;12.10;92.10;;;;;;5076795;28;20028;-78
2022/12/27 07:41:38;;;;;;;22.25;15.32;;;12.20;92.30;;;;;;5095113;28;20043;-77
2022/12/27 07:44:04;;;;;;;25.23;15.02;;;12.20;92.20;;;;;;5094688;28;20032;-78
2022/12/27 07:46:31;;;;;;;21.50;14.43;;;12.20;92.40;;;;;;5094635;28;20035;-79
2022/12/27 07:48:58;;;;;;;20.80;14.40;;;12.20;92.20;;;;;;5094533;28;20480;-79
2022/12/27 07:51:25;;;;;;;23.13;15.23;;;12.30;92.30;;;;;;5094286;28;20028;-78
2022/12/27 07:53:51;;;;;;;22.67;15.43;;;12.30;92.10;;;;;;5076705;28;20024;-79
2022/12/27 07:56:21;;;;;;;28.30;15.50;;;12.30;92.20;;;;;;5076446;28;20086;-78
2022/12/27 07:58:48;;;;;;;24.13;15.32;;;12.40;92.10;;;;;;5076631;28;20036;-78
2022/12/27 08:01:16;;;;;;;26.75;15.32;;;12.50;92.30;;;;;;5094268;28;20518;-81
2022/12/27 08:03:42;;;;;;;22.88;16.58;;;12.60;92.30;;;;;;5076205;28;20373;-78
2022/12/27 08:06:28;;;;;;;25.38;15.98;;;12.60;92.10;;;;;;5076254;28;20031;-80
2022/12/27 08:08:56;;;;;;;23.23;16.00;;;12.70;92.20;;;;;;5094151;28;20059;-79
2022/12/27 08:11:22;;;;;;;27.25;17.25;;;12.70;92.00;;;;;;5075876;28;20525;-78
2022/12/27 08:13:48;;;;;;;31.48;16.60;;;12.70;92.00;;;;;;5093922;28;20032;-78
2022/12/27 08:16:19;;;;;;;23.70;17.00;;;12.80;92.00;;;;;;5094207;28;20479;-79
2022/12/27 08:18:45;;;;;;;24.52;16.42;;;12.80;91.90;;;;;;5094125;28;20107;-78
2022/12/27 08:21:11;;;;;;;26.90;17.73;;;12.90;91.90;;;;;;5093873;28;20460;-79
2022/12/27 08:23:37;;;;;;;27.90;17.23;;;13.00;91.90;;;;;;5093998;28;20047;-77
2022/12/27 08:26:03;;;;;;;28.20;17.77;;;13.10;91.90;;;;;;5093621;28;20128;-79
2022/12/27 08:28:30;;;;;;;26.88;17.30;;;13.10;91.80;;;;;;5075576;28;20107;-78
2022/12/27 08:30:57;;;;;;;24.92;17.52;;;13.20;91.80;;;;;;5075185;28;20036;-79
2022/12/27 08:33:25;;;;;;;29.55;18.52;;;13.20;91.80;;;;;;5075265;28;20093;-78
2022/12/27 08:35:51;;;;;;;31.17;18.27;;;13.30;91.80;;;;;;5075516;28;20036;-79
2022/12/27 08:38:17;;;;;;;31.55;18.83;;;13.40;91.70;;;;;;5075216;28;20024;-79
2022/12/27 08:40:44;;;;;;;32.13;18.35;;;13.40;91.70;;;;;;5093735;28;20036;-79
2022/12/27 08:43:11;;;;;;;28.20;18.90;;;13.50;91.70;;;;;;5093674;28;20494;-79
2022/12/27 08:45:38;;;;;;;29.63;18.08;;;13.50;91.60;;;;;;5093389;28;20089;-79
2022/12/27 08:48:04;;;;;;;31.48;19.13;;;13.60;91.70;;;;;;5075124;28;20052;-78
2022/12/27 08:50:30;;;;;;;31.05;19.15;;;13.60;91.50;;;;;;5093224;28;20040;-78
2022/12/27 08:53:00;;;;;;;27.75;19.02;;;13.70;91.60;;;;;;5093302;28;20089;-78
2022/12/27 08:55:27;;;;;;;33.03;20.20;;;13.80;91.70;;;;;;5074995;28;20032;-79
2022/12/27 08:57:57;;;;;;;31.40;19.65;;;13.80;91.60;;;;;;5074763;28;20696;-79
2022/12/27 09:00:24;;;;;;;31.02;18.58;;;13.90;91.70;;;;;;5093227;28;20399;-79
2022/12/27 09:02:49;;;;;;;39.17;19.52;;;14.00;91.60;;;;;;5074950;28;20028;-79
2022/12/27 09:05:15;;;;;;;30.65;19.92;;;14.10;91.60;;;;;;5074741;28;20043;-74
2022/12/27 09:07:41;;;;;;;27.27;18.40;;;14.20;91.40;;;;;;5074765;28;20083;-79
2022/12/27 09:10:07;;;;;;;30.10;20.35;;;14.20;91.40;;;;;;5093116;28;20071;-79
2022/12/27 09:12:33;;;;;;;26.88;19.45;;;14.20;91.30;;;;;;5093103;28;20119;-78
2022/12/27 09:14:59;;;;;;;29.48;19.70;;;14.30;91.30;;;;;;5093169;28;20043;-78
2022/12/27 09:17:25;;;;;;;28.25;20.40;;;14.40;91.20;;;;;;5093052;28;20028;-79
2022/12/27 09:19:50;;;;;;;30.45;18.95;;;14.50;91.20;;;;;;5074774;28;20128;-79
2022/12/27 09:22:16;;;;;;;31.83;20.23;;;14.50;91.00;;;;;;5092900;28;20060;-79
2022/12/27 09:24:42;;;;;;;31.92;19.60;;;14.60;91.10;;;;;;5092940;28;20036;-79
2022/12/27 09:27:07;;;;;;;33.00;20.88;;;14.60;91.10;;;;;;5092818;28;20036;-80
2022/12/27 09:29:33;;;;;;;30.65;19.33;;;14.70;91.00;;;;;;5074271;28;20048;-78
2022/12/27 09:31:59;;;;;;;29.88;19.20;;;14.80;91.30;;;;;;5074694;28;20032;-80
2022/12/27 09:34:25;;;;;;;30.20;19.92;;;14.80;90.80;;;;;;5074895;28;20115;-78
2022/12/27 09:36:50;;;;;;;30.45;18.27;;;14.80;90.80;;;;;;5092775;28;20560;-78
2022/12/27 09:39:16;;;;;;;30.17;18.80;;;14.90;90.80;;;;;;5074123;28;20043;-78
2022/12/27 09:42:05;;;;;;;31.33;18.35;;;15.00;90.80;;;;;;5093143;28;20102;-80
2022/12/27 09:44:55;;;;;;;28.02;17.52;;;15.00;90.50;;;;;;5074649;28;20047;-79
2022/12/27 09:47:45;;;;;;;24.38;17.50;;;15.10;90.50;;;;;;5092810;28;20074;-78
2022/12/27 09:50:31;;;;;;;28.85;19.30;;;15.20;90.50;;;;;;5074271;28;20086;-78
2022/12/27 09:53:05;;;;;;;25.67;18.00;;;15.20;90.40;;;;;;5092622;28;20032;-79
2022/12/27 09:55:44;;;;;;;29.90;17.38;;;15.30;90.30;;;;;;5092459;28;20032;-79
2022/12/27 09:58:40;;;;;;;25.17;16.85;;;15.30;90.50;;;;;;5074538;28;20114;-79
2022/12/27 10:01:21;;;;;;;25.02;17.90;;;15.40;90.30;;;;;;5074176;28;20444;-80
2022/12/27 10:03:47;;;;;;;31.15;16.73;;;15.40;90.10;;;;;;5092436;28;20491;-78
2022/12/27 10:06:31;;;;;;;22.95;16.80;;;15.50;90.40;;;;;;5076004;28;20043;-79
2022/12/27 10:09:28;;;;;;;27.92;17.33;;;15.50;90.00;;;;;;5096866;28;20047;-79
2022/12/27 10:12:12;;;;;;;28.88;17.52;;;15.50;90.00;;;;;;5096176;28;20044;-79
2022/12/27 10:14:58;;;;;;;;;;;15.50;90.20;;;;;;5077686;28;20548;-79
2022/12/27 10:17:44;;;;;;;27.58;18.13;;;15.60;89.80;;;;;;5093821;28;19904;-80
2022/12/27 10:20:34;;;;;;;25.25;17.00;;;15.70;89.70;;;;;;5092587;28;20119;-79
2022/12/27 10:23:04;;;;;;;25.92;17.08;;;15.80;89.90;;;;;;5092643;28;20113;-80
2022/12/27 10:25:32;;;;;;;28.30;17.33;;;15.80;90.00;;;;;;5074025;28;20037;-78
2022/12/27 10:28:01;;;;;;;37.53;17.55;;;15.80;89.80;;;;;;5073849;28;20044;-79
2022/12/27 10:30:29;;;;;;;24.33;16.05;;;15.90;89.70;;;;;;5092298;28;20088;-79
2022/12/27 10:32:55;;;;;;;24.67;16.58;;;15.90;89.40;;;;;;5092508;28;20024;-80
2022/12/27 10:35:23;;;;;;;25.60;15.07;;;15.90;89.40;;;;;;5073796;28;20073;-79
2022/12/27 10:37:49;;;;;;;22.98;15.32;;;15.90;89.40;;;;;;5073738;28;20396;-79
2022/12/27 10:40:22;;;;;;;24.77;15.40;;;15.90;89.30;;;;;;5092295;28;20031;-79
2022/12/27 10:43:03;;;;;;;18.67;13.80;;;16.00;89.20;;;;;;5092427;28;20130;-80
2022/12/27 10:45:41;;;;;;;22.52;16.92;;;16.00;88.90;;;;;;5073976;28;20758;-79
2022/12/27 10:48:27;;;;;;;21.42;14.85;;;16.10;88.70;;;;;;5092219;28;20032;-79
2022/12/27 10:51:06;;;;;;;22.02;14.30;;;16.10;89.00;;;;;;5075464;28;20040;-79
2022/12/27 10:53:35;;;;;;;22.33;15.63;;;16.20;88.70;;;;;;5096355;28;20032;-79
2022/12/27 10:56:13;;;;;;;20.73;13.23;;;16.20;88.60;;;;;;5077950;28;20039;-80
2022/12/27 10:58:44;;;;;;;32.47;15.10;;;16.20;88.70;;;;;;5095817;28;20028;-79
2022/12/27 11:01:14;;;;;;;20.15;13.85;;;16.30;88.40;;;;;;5076897;28;20183;-79
2022/12/27 11:03:40;;;;;;;27.98;15.10;;;16.30;88.20;;;;;;5095783;28;20093;-78
2022/12/27 11:06:25;;;;;;;29.92;15.07;;;16.40;88.10;;;;;;5077524;28;20480;-79
2022/12/27 11:08:53;;;;;;;22.42;14.60;;;16.40;88.20;;;;;;5097972;28;20090;-78
2022/12/27 11:11:21;;;;;;;25.90;14.80;;;16.40;88.00;;;;;;5081940;28;20044;-80
2022/12/27 11:13:48;;;;;;;21.35;13.57;;;16.40;88.10;;;;;;5098937;28;20158;-80
2022/12/27 11:16:27;;;;;;;24.55;14.45;;;16.40;88.50;;;;;;5095713;28;20173;-79
2022/12/27 11:18:57;;;;;;;25.60;14.63;;;16.30;88.20;;;;;;5095988;28;20035;-79
2022/12/27 11:21:24;;;;;;;22.20;14.52;;;16.30;88.50;;;;;;5077396;28;20040;-79
2022/12/27 11:23:54;;;;;;;20.38;13.13;;;16.40;88.60;;;;;;5077105;28;20093;-79
2022/12/27 11:26:28;;;;;;;42.28;20.00;;;16.50;88.40;;;;;;5095296;28;20028;-79
2022/12/27 11:28:55;;;;;;;;;;;16.70;88.10;;;;;;5096014;28;20132;-79
2022/12/27 11:31:36;;;;;;;23.25;13.30;;;16.70;87.50;;;;;;5077097;28;19904;-78
2022/12/27 11:34:07;;;;;;;20.20;12.75;;;16.80;88.00;;;;;;5095117;28;20047;-81
2022/12/27 11:36:42;;;;;;;16.73;11.68;;;16.70;87.60;;;;;;5095234;28;20040;-79
2022/12/27 11:39:46;;;;;;;20.75;14.25;;;16.70;87.90;;;;;;5076925;28;20024;-78
2022/12/27 11:42:37;;;;;;;20.67;13.60;;;16.60;88.20;;;;;;5095317;28;20028;-79
2022/12/27 11:45:22;;;;;;;22.38;13.02;;;16.60;88.40;;;;;;5094969;28;20039;-80
2022/12/27 11:47:55;;;;;;;19.65;13.15;;;16.70;88.50;;;;;;5094796;28;20036;-80
2022/12/27 11:50:26;;;;;;;19.58;13.23;;;16.80;87.80;;;;;;5094910;28;20071;-79
2022/12/27 11:53:07;;;;;;;20.20;13.07;;;16.90;88.00;;;;;;5094855;28;20441;-78
2022/12/27 11:55:51;;;;;;;20.73;12.07;;;17.00;87.90;;;;;;5094787;28;20036;-79
2022/12/27 11:58:44;;;;;;;18.08;11.57;;;17.00;87.30;;;;;;5076503;28;20063;-79
2022/12/27 12:01:31;;;;;;;21.63;12.00;;;17.10;87.30;;;;;;5075893;28;20033;-79
2022/12/27 12:04:22;;;;;;;13.77;8.90;;;17.10;87.70;;;;;;5076146;28;20032;-78
2022/12/27 12:07:06;;;;;;;11.98;7.32;;;17.30;87.40;;;;;;5076443;28;20028;-79
2022/12/27 12:09:38;;;;;;;13.65;7.85;;;17.40;86.50;;;;;;5076770;28;20136;-79
2022/12/27 12:12:35;;;;;;;14.02;7.60;;;17.40;86.10;;;;;;5094201;28;20036;-79
2022/12/27 12:15:19;;;;;;;7.95;5.00;;;17.60;86.40;;;;;;5061683;28;20032;-80
2022/12/27 12:17:50;;;;;;;11.82;4.82;;;17.80;85.30;;;;;;5094305;28;20043;-80
2022/12/27 12:20:39;;;;;;;9.90;4.50;;;17.90;84.90;;;;;;5094404;28;20106;-79
2022/12/27 12:23:19;;;;;;;9.50;4.50;;;17.90;84.80;;;;;;5094666;28;20036;-80
2022/12/27 12:26:07;;;;;;;10.45;4.85;;;17.90;84.90;;;;;;5075648;28;20039;-79
2022/12/27 12:28:54;;;;;;;9.75;4.68;;;18.00;84.50;;;;;;5076062;28;20036;-79
2022/12/27 12:31:52;;;;;;;9.65;4.55;;;18.10;84.00;;;;;;5094546;28;20549;-80
2022/12/27 12:34:41;;;;;;;8.52;4.45;;;18.10;83.70;;;;;;5075893;28;20036;-79
2022/12/27 12:37:50;;;;;;;6.00;3.70;;;18.10;83.70;;;;;;5094488;28;20032;-79
2022/12/27 12:40:22;;;;;;;7.20;4.13;;;18.00;82.90;;;;;;5075350;28;20036;-79
2022/12/27 12:43:00;;;;;;;8.88;4.18;;;18.10;82.30;;;;;;5093748;28;20085;-80
2022/12/27 12:45:49;;;;;;;7.50;4.20;;;18.20;82.70;;;;;;5093716;28;20036;-79
2022/12/27 12:48:34;;;;;;;10.38;4.43;;;18.40;81.80;;;;;;5093405;28;20032;-79
2022/12/27 12:51:21;;;;;;;8.98;3.75;;;18.40;81.00;;;;;;5075072;28;20051;-79
2022/12/27 12:54:01;;;;;;;6.47;4.05;;;18.40;80.60;;;;;;5093501;28;20039;-79
2022/12/27 12:56:48;;;;;;;8.20;3.75;;;18.40;80.70;;;;;;5075008;28;20032;-81
2022/12/27 12:59:51;;;;;;;8.90;3.90;;;18.30;80.60;;;;;;5093346;28;20042;-79
2022/12/27 13:02:38;;;;;;;6.43;4.00;;;18.40;80.30;;;;;;5074877;28;20329;-80
2022/12/27 13:05:39;;;;;;;6.80;3.88;;;18.50;80.00;;;;;;5092848;28;20051;-77
2022/12/27 13:08:29;;;;;;;11.80;4.20;;;18.50;79.80;;;;;;5092684;28;20040;-79
2022/12/27 13:11:28;;;;;;;8.82;4.40;;;18.40;79.90;;;;;;5092880;28;20036;-79
2022/12/27 13:14:05;;;;;;;10.65;4.25;;;18.40;79.80;;;;;;5092569;28;20384;-80
2022/12/27 13:16:45;;;;;;;7.03;4.10;;;18.30;79.80;;;;;;5092818;28;20064;-78
2022/12/27 13:19:38;;;;;;;10.02;4.13;;;18.30;79.60;;;;;;5092779;28;20040;-79
2022/12/27 13:22:12;;;;;;;7.43;3.92;;;18.30;79.40;;;;;;5074667;28;20038;-81
2022/12/27 13:24:59;;;;;;;6.72;3.25;;;18.20;79.40;;;;;;5093035;28;20028;-80
2022/12/27 13:27:34;;;;;;;6.20;3.47;;;18.20;79.70;;;;;;5092446;28;20119;-82
2022/12/27 13:30:14;;;;;;;7.90;4.10;;;18.10;79.70;;;;;;5074092;28;20070;-78
2022/12/27 13:32:49;;;;;;;8.88;4.30;;;18.10;79.80;;;;;;5074551;28;20036;-79
2022/12/27 13:35:50;;;;;;;6.18;4.03;;;18.10;79.80;;;;;;5074242;28;20036;-80
2022/12/27 13:38:53;;;;;;;7.50;4.05;;;18.10;79.90;;;;;;5074320;28;20039;-80
2022/12/27 13:41:28;;;;;;;7.45;4.10;;;18.00;80.10;;;;;;5092345;28;20081;-79
2022/12/27 13:44:10;;;;;;;10.35;5.30;;;18.00;80.40;;;;;;5074179;28;20047;-80
2022/12/27 13:46:51;;;;;;;6.53;4.47;;;17.90;80.40;;;;;;5074143;28;20361;-79
2022/12/27 13:49:55;;;;;;;9.52;4.28;;;17.90;81.20;;;;;;5092179;28;20043;-79
2022/12/27 13:52:45;;;;;;;12.82;4.47;;;17.90;80.20;;;;;;5091835;28;20043;-80
2022/12/27 13:55:32;;;;;;;10.50;4.25;;;18.00;80.50;;;;;;5073859;28;20127;-78
2022/12/27 13:58:19;;;;;;;8.00;4.30;;;18.00;80.00;;;;;;5073764;28;20032;-80
2022/12/27 14:00:57;;;;;;;9.73;4.00;;;18.00;80.10;;;;;;5074112;28;20036;-79
2022/12/27 14:03:26;;;;;;;10.10;5.03;;;17.90;79.90;;;;;;5092234;28;20036;-80
2022/12/27 14:06:04;;;;;;;8.25;4.88;;;17.90;79.60;;;;;;5073960;28;20083;-80
2022/12/27 14:09:05;;;;;;;9.15;4.97;;;17.90;80.00;;;;;;5091955;28;20483;-79
2022/12/27 14:11:57;;;;;;;10.45;5.25;;;17.70;80.30;;;;;;5010075;28;20508;-80
2022/12/27 14:14:25;;;;;;;9.77;5.85;;;17.60;80.70;;;;;;5072828;28;20036;-80
2022/12/27 14:17:25;;;;;;;12.73;5.82;;;17.50;81.30;;;;;;5092351;28;20507;-80
2022/12/27 14:20:28;;;;;;;10.20;5.90;;;17.40;81.60;;;;;;5092142;28;20450;-80
2022/12/27 14:23:03;;;;;;;13.07;7.90;;;17.30;81.80;;;;;;5024317;28;20040;-79
2022/12/27 14:26:16;;;;;;;13.75;7.75;;;17.30;82.10;;;;;;5094660;28;20472;-80
2022/12/27 14:28:50;;;;;;;15.73;9.27;;;17.30;82.10;;;;;;5078645;28;20047;-80
2022/12/27 14:31:55;;;;;;;15.13;9.63;;;17.30;82.30;;;;;;5096363;28;20170;-79
2022/12/27 14:35:02;;;;;;;19.17;9.60;;;17.20;82.30;;;;;;5096055;28;20033;-80
2022/12/27 14:38:05;;;;;;;15.10;9.52;;;17.10;82.40;;;;;;5095938;28;20345;-79
2022/12/27 14:40:43;;;;;;;15.60;9.82;;;17.00;82.70;;;;;;5095681;28;20452;-80
2022/12/27 14:43:33;;;;;;;16.25;9.90;;;16.90;83.00;;;;;;5095519;28;20032;-79
2022/12/27 14:46:43;;;;;;;17.58;9.95;;;16.80;83.20;;;;;;5095703;28;20423;-79
2022/12/27 14:49:30;;;;;;;17.05;9.88;;;16.80;83.50;;;;;;5077274;28;20042;-80